Terminal Aerodrome Forecast
Issued by NWS

Home | Current Version | Previous Version | Text Only | Print | Product List | Glossary On
Versions: 1 2 3 4 5 6 7 8 9 10 11 12 13 14 15 16 17 18 19 20 21 22 23 24 25 26 27 28 29 30 31 32 33 34 35 36
000
FTUS43 KDDC 271722
TAFGCK
TAF
KGCK 271722Z 2718/2818 04009KT P6SM VCSH OVC020
     FM271900 05008KT P6SM BKN035
     FM280800 09004KT P6SM BKN150
     FM281100 07008KT P6SM BKN025=

USA.gov is the U.S. government's official web portal to all federal, state and local government web resources and services.